Details From VYMD - Mandalay Intl
To VQPR - Paro
Flight Number -
Tags Generated
Created
Modified
Stats Distance 497 nm / 921 km
Max Altitude 0 ft / 0 m
Waypoints 4
Social Downloads 2
Likes 0
Share VATSIM

Download

Looking for another format? Having issues loading an existing format? Contact us
Advertisement - Login to hide

Notes

Generated

Route

VYMD KKU PR VQPR

ID Type Via Altitude Latitude Longitude Leg Dist Tot Dist Heading (true) Name
O VYMD APT - 0 ft / 0 m 21.72002˚ 95.97441˚ - 0 nm - -
KKU VOR - 0 ft / 0 m 24.91369˚ 92.97754˚ 253 nm 253 nm 320° / 319° SILCHAR VOR-DME
PR NDB - 0 ft / 0 m 27.40034˚ 89.41543˚ 243 nm 496 nm 309° / 307° PARO NDB
O VQPR APT - 0 ft / 0 m 27.41091˚ 89.41972˚ 0 nm 497 nm 20° / 20° -

Altitude Profile

Advertisement - Login to hide

Weather


0- 5 10 15 20 25 30 35+ Temperature / ° C

Clouds and Precipitation
Forecast for 2017-12-11 12:00 UTC. Updated 33 minutes ago

Ground ~20,000 ft ~40,000 ft Winds

VYMD

Details ICAO VYMD (MDL)
Name MANDALAY INTL
Region Myanmar
Timezone Asia/Rangoon (UTC+6.5)
Stats Elevation 300 ft / 91 m (AMSL)
Location 21.701010° 95.977795°
Runways 1
Magnetic Variation 0.621° W

METAR

VYMD 110930Z 03003KT 6000 BKN015 FEW018CB BKN100 25/22 Q1011

Decode

TAF

TAF VYMD 110500Z 1106/1206 32003KT 6000 BKN018 FEW020CB TEMPO 1106/ 1112 34005KT 5000 -RA BKN012 FEW018CB OVC080

Decode

Departure Runways

ID Width Length Bearing (true) Bearing (mag) Surface Threshold Offset Overrun Length
17 200 ft / 61 m 14,062 ft / 4,286 m 170.60° 171.22° Concrete 0 ft / 0 m 200 ft / 61 m
35 200 ft / 61 m 14,062 ft / 4,286 m 350.60° 351.22° Concrete 0 ft / 0 m 200 ft / 61 m

VQPR

Details ICAO VQPR (PBH)
Name PARO
Region Bhutan
Timezone Asia/Thimphu (UTC+6.0)
Stats Elevation 7,332 ft / 2,235 m (AMSL)
Location 27.403190° 89.424605°
Runways 1
Magnetic Variation 0.124° E

METAR

VQPR 110930Z 17013KT 9999 SKC 22/M04 Q1017

Decode

TAF

Not found

Destination Runways

ID Width Length Bearing (true) Bearing (mag) Surface Threshold Offset Overrun Length
15 95 ft / 29 m 6,462 ft / 1,970 m 150.65° 150.53° Asphalt 0 ft / 0 m 390 ft / 119 m
33 95 ft / 29 m 6,462 ft / 1,970 m 330.65° 330.53° Asphalt 0 ft / 0 m 217 ft / 66 m

Popular Alternatives